Megah Delapan — VRGA4 — position and weather

sailwx.info

Track history (hours):
 
Tides and Currents Weather Stations Pressure Air Temp Water Temp Dewpoint Dewpoint Depression Visibility Wind Speed Wind Dir Waves Ship Positions

Megah Delapan

Last reported at 2015-Jan-18 23:06 UTC. Time now 2015-Feb-02 00:18 UTC.
Position N 22°10' E 114°09'.
Warning: this ship's position is 14 days out of date.

Length 120 m; draft 8.7 m.

Type: Cargo ship. MMSI: 477639100.

Date/timePositionNaut miles runAvg speedWind from/ knotsBaromVisibWave heightAir tempDewpointWater temp
2015-Jan-18 23:06N 22°10' E 114°09'0 0.0
2015-Jan-18 22:33N 22°10' E 114°09'0 0.0
2015-Jan-18 21:33N 22°10' E 114°09'2 1.6
2015-Jan-18 20:33N 22°09' E 114°09'1010.2
2015-Jan-18 19:33N 22°09' E 114°21'14712.9
2015-Jan-18 08:12N 22°55' E 116°52'10313.5
2015-Jan-18 00:33N 23°55' E 118°23'1412.5
2015-Jan-17 23:26N 24°06' E 118°33'2912.3
2015-Jan-17 21:05N 24°27' E 118°53'712.3
2015-Jan-17 20:33N 24°33' E 118°58'1313.4
2015-Jan-17 19:33N 24°41' E 119°10'4313.5
2015-Jan-17 16:22N 25°08' E 119°46'  
2015-Jan-15 02:32N 33°41' E 129°54'4811.9
2015-Jan-14 22:28N 34°03' E 130°46'  
Track history (hours):
 
Tides and Currents Weather Stations Pressure Air Temp Water Temp Dewpoint Dewpoint Depression Visibility Wind Speed Wind Dir Waves Ship Positions

Megah Delapan

Last reported at 2015-Jan-18 23:06 UTC. Time now 2015-Feb-02 00:18 UTC.
Position N 22°10' E 114°09'.
Warning: this ship's position is 14 days out of date.

Length 120 m; draft 8.7 m.

Type: Cargo ship. MMSI: 477639100.

Date/timePositionNaut miles runAvg speedWind from/ knotsBaromVisibWave heightAir tempDewpointWater temp
2015-Jan-18 23:06N 22°10' E 114°09'0 0.0
2015-Jan-18 22:33N 22°10' E 114°09'0 0.0
2015-Jan-18 21:33N 22°10' E 114°09'2 1.6
2015-Jan-18 20:33N 22°09' E 114°09'1010.2
2015-Jan-18 19:33N 22°09' E 114°21'14712.9
2015-Jan-18 08:12N 22°55' E 116°52'10313.5
2015-Jan-18 00:33N 23°55' E 118°23'1412.5
2015-Jan-17 23:26N 24°06' E 118°33'2912.3
2015-Jan-17 21:05N 24°27' E 118°53'712.3
2015-Jan-17 20:33N 24°33' E 118°58'1313.4
2015-Jan-17 19:33N 24°41' E 119°10'4313.5
2015-Jan-17 16:22N 25°08' E 119°46'  
2015-Jan-15 02:32N 33°41' E 129°54'4811.9
2015-Jan-14 22:28N 34°03' E 130°46'  

Dump ship's entire track history